createdAt,value
2023-05-03T00:01:13.032Z,60.78
2023-05-03T00:06:16.144Z,61.31
2023-05-03T00:11:17.977Z,60.25
2023-05-03T00:16:20.411Z,60.66
2023-05-03T00:21:22.355Z,60.94
2023-05-03T00:26:24.042Z,61.21
2023-05-03T00:31:25.750Z,60.40
2023-05-03T00:36:28.329Z,61.27
2023-05-03T00:41:29.893Z,61.56
2023-05-03T00:46:31.641Z,61.87
2023-05-03T00:51:33.868Z,62.03
2023-05-03T00:56:47.840Z,62.40
2023-05-03T01:01:53.613Z,62.60
2023-05-03T01:07:08.647Z,62.88
2023-05-03T01:12:21.375Z,63.26
2023-05-03T01:17:30.004Z,62.98
2023-05-03T01:22:39.183Z,63.18
2023-05-03T01:27:42.303Z,63.69
2023-05-03T01:33:35.552Z,63.89
2023-05-03T01:38:39.672Z,64.15
2023-05-03T01:43:43.733Z,64.59
2023-05-03T01:48:45.349Z,64.26
2023-05-03T01:53:47.054Z,65.47
2023-05-03T01:58:50.744Z,65.00
2023-05-03T02:03:53.534Z,65.55
2023-05-03T02:08:55.540Z,65.90
2023-05-03T02:13:57.225Z,66.35
2023-05-03T02:18:59.692Z,66.24
2023-05-03T02:24:01.913Z,65.90
2023-05-03T02:29:03.895Z,66.64
2023-05-03T02:34:07.778Z,66.49
2023-05-03T02:39:10.736Z,66.07
2023-05-03T02:44:12.525Z,65.90
2023-05-03T02:49:14.266Z,66.88
2023-05-03T02:54:16.821Z,66.36
2023-05-03T02:59:19.353Z,66.81
2023-05-03T03:04:24.151Z,67.79
2023-05-03T03:09:26.116Z,67.67
2023-05-03T03:14:28.192Z,67.86
2023-05-03T03:19:29.983Z,67.64
2023-05-03T03:24:31.889Z,67.96
2023-05-03T03:29:35.352Z,68.02
2023-05-03T03:34:39.318Z,68.00
2023-05-03T03:39:41.196Z,68.20
2023-05-03T03:44:43.043Z,68.28
2023-05-03T03:49:44.911Z,68.77
2023-05-03T03:54:47.913Z,68.52
2023-05-03T03:59:51.747Z,68.62
2023-05-03T04:04:53.542Z,69.28
2023-05-03T04:09:56.654Z,68.55
2023-05-03T04:14:59.777Z,68.44
2023-05-03T04:20:11.101Z,68.43
2023-05-03T04:25:14.917Z,67.39
2023-05-03T04:30:20.213Z,67.28
2023-05-03T04:35:25.163Z,66.81
2023-05-03T04:40:27.486Z,67.33
2023-05-03T04:45:37.505Z,67.43
2023-05-03T04:50:41.219Z,68.21
2023-05-03T04:55:45.253Z,68.44
2023-05-03T05:00:46.929Z,68.22
2023-05-03T05:05:56.913Z,68.56
2023-05-03T05:10:59.483Z,67.92
2023-05-03T05:16:05.994Z,68.13
2023-05-03T05:21:08.109Z,68.81
2023-05-03T05:26:10.987Z,68.69
2023-05-03T05:31:13.700Z,68.12
2023-05-03T05:36:15.977Z,68.57
2023-05-03T05:41:18.984Z,69.36
2023-05-03T05:46:21.561Z,70.39
2023-05-03T05:51:26.708Z,65.54
2023-05-03T05:56:29.516Z,65.03
2023-05-03T06:01:32.262Z,65.43
2023-05-03T06:06:35.105Z,63.45
2023-05-03T06:11:38.329Z,63.51
2023-05-03T06:16:41.262Z,61.72
2023-05-03T06:21:43.106Z,61.07
2023-05-03T06:26:46.133Z,60.59
2023-05-03T06:31:48.124Z,59.93
2023-05-03T06:36:51.788Z,60.28
2023-05-03T06:41:53.690Z,60.94
2023-05-03T06:46:55.605Z,61.72
2023-05-03T06:51:57.621Z,58.43
2023-05-03T06:57:01.792Z,57.36
2023-05-03T07:02:03.548Z,56.79
2023-05-03T07:07:06.542Z,56.14
2023-05-03T07:12:08.221Z,55.66
2023-05-03T07:17:11.353Z,54.78
2023-05-03T07:22:13.026Z,54.37
2023-05-03T07:27:15.537Z,53.15
2023-05-03T07:32:17.217Z,53.39
2023-05-03T07:37:18.919Z,53.15
2023-05-03T07:42:20.728Z,52.65
2023-05-03T07:47:26.394Z,51.36
2023-05-03T07:52:27.981Z,51.22
2023-05-03T07:57:29.584Z,50.29
2023-05-03T08:02:31.395Z,52.84
2023-05-03T08:07:33.376Z,49.66
2023-05-03T08:12:36.180Z,49.23
2023-05-03T08:17:45.817Z,49.83
2023-05-03T08:22:47.538Z,48.27
2023-05-03T08:27:53.327Z,48.17
2023-05-03T08:32:54.980Z,49.15
2023-05-03T08:37:56.760Z,48.62
2023-05-03T08:43:02.191Z,48.87
2023-05-03T08:48:04.705Z,48.92
2023-05-03T08:53:06.450Z,47.96
2023-05-03T08:58:12.599Z,47.19
2023-05-03T09:03:14.477Z,47.76
2023-05-03T09:08:17.236Z,46.22
2023-05-03T09:13:19.416Z,46.97
2023-05-03T09:18:21.778Z,47.48
2023-05-03T09:23:26.258Z,47.00
2023-05-03T09:28:28.074Z,47.29
2023-05-03T09:33:29.835Z,46.54
2023-05-03T09:38:33.789Z,45.88
2023-05-03T09:43:38.578Z,45.91
2023-05-03T09:48:41.237Z,46.19
2023-05-03T09:53:43.126Z,46.82
2023-05-03T09:58:44.815Z,45.63
2023-05-03T10:03:52.957Z,46.29
2023-05-03T10:09:06.144Z,44.96
2023-05-03T10:14:08.080Z,46.92
2023-05-03T10:19:58.658Z,47.09
2023-05-03T10:25:00.539Z,44.17
2023-05-03T10:30:03.258Z,46.04
2023-05-03T10:35:15.757Z,43.83
2023-05-03T10:40:19.580Z,45.32
2023-05-03T10:45:28.696Z,44.85
2023-05-03T10:50:30.440Z,44.89
2023-05-03T10:55:32.335Z,44.39
2023-05-03T11:00:39.178Z,44.26
2023-05-03T11:05:40.944Z,43.81
2023-05-03T11:10:44.533Z,43.47
2023-05-03T11:15:48.406Z,42.73
2023-05-03T11:20:50.848Z,43.13
2023-05-03T11:25:52.784Z,42.18
2023-05-03T11:30:54.872Z,41.94
2023-05-03T11:35:57.037Z,43.50
2023-05-03T11:41:00.143Z,42.60
2023-05-03T11:46:02.146Z,42.13
2023-05-03T11:51:09.387Z,41.87
2023-05-03T11:56:17.981Z,44.44
2023-05-03T12:01:24.235Z,41.97
2023-05-03T12:06:32.177Z,42.37
2023-05-03T12:11:43.684Z,41.90
2023-05-03T12:16:50.911Z,41.08
2023-05-03T12:26:57.876Z,42.80
2023-05-03T12:32:03.205Z,41.27
2023-05-03T12:37:06.591Z,42.83
2023-05-03T12:42:09.375Z,43.97
2023-05-03T12:47:19.690Z,42.50
2023-05-03T12:57:31.150Z,41.70
2023-05-03T13:07:42.487Z,42.33
2023-05-03T13:12:45.685Z,45.56
2023-05-03T13:17:48.529Z,43.23
2023-05-03T13:22:52.766Z,40.36
2023-05-03T13:27:54.705Z,42.66
2023-05-03T13:32:56.480Z,40.74
2023-05-03T13:37:58.148Z,42.32
2023-05-03T13:42:59.907Z,42.52
2023-05-03T13:48:18.260Z,42.18
2023-05-03T13:53:21.049Z,40.84
2023-05-03T13:58:22.769Z,41.36
2023-05-03T14:03:25.078Z,40.95
2023-05-03T14:08:26.882Z,41.09
2023-05-03T14:13:32.901Z,41.26
2023-05-03T14:18:39.991Z,42.16
2023-05-03T14:23:46.903Z,40.60
2023-05-03T14:28:48.526Z,40.45
2023-05-03T14:33:52.068Z,39.86
2023-05-03T14:38:53.734Z,40.49
2023-05-03T14:43:56.145Z,40.98
2023-05-03T14:48:57.952Z,40.89
2023-05-03T14:53:59.899Z,40.94
2023-05-03T14:59:01.872Z,40.51
2023-05-03T15:04:07.956Z,40.71
2023-05-03T15:09:12.075Z,40.78
2023-05-03T15:14:13.828Z,40.85
2023-05-03T15:19:15.484Z,40.88
2023-05-03T15:24:18.161Z,40.72
2023-05-03T15:29:21.560Z,42.29
2023-05-03T15:34:23.425Z,39.81
2023-05-03T15:39:25.217Z,40.52
2023-05-03T15:44:26.860Z,40.93
2023-05-03T15:49:28.639Z,40.61
2023-05-03T15:54:30.582Z,42.20
2023-05-03T15:59:32.381Z,41.24
2023-05-03T16:04:37.229Z,41.43
2023-05-03T16:09:38.984Z,41.62
2023-05-03T16:14:43.363Z,42.51
2023-05-03T16:19:45.124Z,42.91
2023-05-03T16:24:47.347Z,44.18
2023-05-03T16:29:49.083Z,43.82
2023-05-03T16:34:53.409Z,43.46
2023-05-03T16:39:55.573Z,42.57
2023-05-03T16:44:57.558Z,43.46
2023-05-03T16:50:02.824Z,44.86
2023-05-03T16:55:06.436Z,46.74
2023-05-03T17:00:10.185Z,45.99
2023-05-03T17:05:13.700Z,46.84
2023-05-03T17:10:15.915Z,48.01
2023-05-03T17:19:13.662Z,49.29
2023-05-03T17:24:15.669Z,49.46
2023-05-03T17:29:17.409Z,50.58
2023-05-03T17:34:20.671Z,51.00
2023-05-03T17:39:24.781Z,51.26
2023-05-03T17:44:27.175Z,51.18
2023-05-03T17:49:30.065Z,52.16
2023-05-03T17:54:32.868Z,53.11
2023-05-03T17:59:34.618Z,53.10
2023-05-03T18:04:36.310Z,53.68
2023-05-03T18:09:38.229Z,53.31
2023-05-03T18:14:39.945Z,54.10
2023-05-03T18:19:44.806Z,54.01
2023-05-03T18:24:46.526Z,53.87
2023-05-03T18:29:49.066Z,54.43
2023-05-03T18:34:51.244Z,55.37
2023-05-03T18:39:52.917Z,55.14
2023-05-03T18:44:54.646Z,55.04
2023-05-03T18:49:56.689Z,55.55
2023-05-03T18:54:58.398Z,55.66
2023-05-03T19:00:01.474Z,56.47
2023-05-03T19:05:03.677Z,56.55
2023-05-03T19:10:06.694Z,56.32
2023-05-03T19:15:09.189Z,57.32
2023-05-03T19:20:12.068Z,59.26
2023-05-03T19:25:14.995Z,59.48
2023-05-03T19:30:16.798Z,60.51
2023-05-03T19:35:18.509Z,60.49
2023-05-03T19:40:21.707Z,60.78
2023-05-03T19:45:23.992Z,61.98
2023-05-03T19:50:25.773Z,61.61
2023-05-03T19:55:27.454Z,62.45
2023-05-03T20:00:29.926Z,62.66
2023-05-03T20:05:31.642Z,63.35
2023-05-03T20:10:36.395Z,63.92
2023-05-03T20:15:38.081Z,63.06
2023-05-03T20:20:39.807Z,64.02
2023-05-03T20:25:41.591Z,64.50
2023-05-03T20:30:43.397Z,64.54
2023-05-03T20:35:45.208Z,65.02
2023-05-03T20:40:46.910Z,65.39
2023-05-03T20:45:48.674Z,64.85
2023-05-03T20:50:53.117Z,65.71
2023-05-03T20:55:56.433Z,65.79
2023-05-03T21:00:58.330Z,65.97
2023-05-03T21:06:00.193Z,64.74
2023-05-03T21:11:02.234Z,64.58
2023-05-03T21:16:04.548Z,64.67
2023-05-03T21:21:06.366Z,64.34
2023-05-03T21:26:08.115Z,64.18
2023-05-03T21:31:10.206Z,65.50
2023-05-03T21:36:12.656Z,65.89
2023-05-03T21:41:14.282Z,66.19
2023-05-03T21:46:15.998Z,67.26
2023-05-03T21:51:22.338Z,67.14
2023-05-03T21:56:23.970Z,67.75
2023-05-03T22:01:25.637Z,68.61
2023-05-03T22:06:27.349Z,69.09
2023-05-03T22:11:29.202Z,68.99
2023-05-03T22:16:31.080Z,68.75
2023-05-03T22:21:32.899Z,69.03
2023-05-03T22:26:34.587Z,69.54
2023-05-03T22:31:36.370Z,69.58
2023-05-03T22:36:38.386Z,69.30
2023-05-03T22:41:40.536Z,70.26
2023-05-03T22:46:43.822Z,70.17
2023-05-03T22:51:46.134Z,70.47
2023-05-03T22:56:47.942Z,69.92
2023-05-03T23:01:51.853Z,70.20
2023-05-03T23:06:53.639Z,70.83
2023-05-03T23:11:56.619Z,71.74
2023-05-03T23:16:58.399Z,71.69
2023-05-03T23:22:00.199Z,71.60
2023-05-03T23:27:01.937Z,71.07
2023-05-03T23:32:04.304Z,70.94
2023-05-03T23:37:06.507Z,70.87
2023-05-03T23:42:08.134Z,70.02
2023-05-03T23:47:10.007Z,70.23
2023-05-03T23:52:11.724Z,70.09
2023-05-03T23:57:13.301Z,70.73
